Time;durP1;ratioP1;P1;durP2;ratioP2;P2;SDS_P1;SDS_P2;PMS_P1;PMS_P2;Temp;Humidity;BMP_temperature;BMP_pressure;BME280_temperature;BME280_humidity;BME280_pressure;Samples;Min_cycle;Max_cycle;Signal;HPM_P1;HPM_P2
2023/01/28 00:00:15;;;;;;;23.10;21.90;;;;;;;;;;5098905;28;20196;-81
2023/01/28 00:02:42;;;;;;;21.98;20.88;;;;;;;;;;5098082;28;20321;-81
2023/01/28 00:05:11;;;;;;;22.20;21.10;;;;;;;;;;5098589;28;20774;-82
2023/01/28 00:07:38;;;;;;;23.13;21.88;;;;;;;;;;5101431;28;20208;-81
2023/01/28 00:10:05;;;;;;;22.88;21.67;;;;;;;;;;5102928;28;20215;-82
2023/01/28 00:12:32;;;;;;;22.13;20.90;;;;;;;;;;5102184;28;20265;-81
2023/01/28 00:14:59;;;;;;;23.17;21.88;;;;;;;;;;5102383;28;20219;-81
2023/01/28 00:17:26;;;;;;;24.30;22.77;;;;;;;;;;5102964;28;20211;-82
2023/01/28 00:19:53;;;;;;;22.10;21.00;;;;;;;;;;5102553;28;20206;-83
2023/01/28 00:22:21;;;;;;;22.10;21.00;;;;;;;;;;5101647;28;20198;-81
2023/01/28 00:24:48;;;;;;;21.90;20.80;;;;;;;;;;5101884;28;20265;-83
2023/01/28 00:27:15;;;;;;;23.15;21.20;;;;;;;;;;5102914;28;20185;-82
2023/01/28 00:29:42;;;;;;;21.33;20.13;;;;;;;;;;5102719;28;20215;-81
2023/01/28 00:32:09;;;;;;;22.67;21.58;;;;;;;;;;5101724;28;20227;-81
2023/01/28 00:34:36;;;;;;;22.80;21.50;;;;;;;;;;5102736;28;20706;-81
2023/01/28 00:37:03;;;;;;;21.92;20.73;;;;;;;;;;5101753;28;20611;-83
2023/01/28 00:39:32;;;;;;;22.45;21.35;;;;;;;;;;5101870;28;20201;-83
2023/01/28 00:41:59;;;;;;;22.17;20.98;;;;;;;;;;5101840;28;20281;-82
2023/01/28 00:44:26;;;;;;;22.35;21.15;;;;;;;;;;5101658;28;20235;-82
2023/01/28 00:46:53;;;;;;;23.17;21.83;;;;;;;;;;5101786;28;20573;-81
2023/01/28 00:49:20;;;;;;;22.73;21.50;;;;;;;;;;5102256;28;20233;-82
2023/01/28 00:51:47;;;;;;;22.85;21.75;;;;;;;;;;5101954;28;20240;-82
2023/01/28 00:54:14;;;;;;;22.50;21.20;;;;;;;;;;5101411;28;20196;-83
2023/01/28 00:56:43;;;;;;;22.90;21.70;;;;;;;;;;5101088;28;20231;-83
2023/01/28 00:59:10;;;;;;;21.75;20.70;;;;;;;;;;5101587;28;20283;-82
2023/01/28 01:01:37;;;;;;;23.88;22.58;;;;;;;;;;5100309;28;20282;-85
2023/01/28 01:04:04;;;;;;;23.60;22.45;;;;;;;;;;5101314;28;20228;-81
2023/01/28 01:06:32;;;;;;;21.73;20.73;;;;;;;;;;5100558;28;20217;-81
2023/01/28 01:08:59;;;;;;;23.92;22.15;;;;;;;;;;5101294;28;20209;-83
2023/01/28 01:11:26;;;;;;;22.60;21.30;;;;;;;;;;5101221;28;20235;-83
2023/01/28 01:13:55;;;;;;;22.13;20.75;;;;;;;;;;5101026;28;20200;-83
2023/01/28 01:16:23;;;;;;;22.58;21.38;;;;;;;;;;5100635;28;20701;-82
2023/01/28 01:18:51;;;;;;;22.13;21.00;;;;;;;;;;5099893;28;20203;-81
2023/01/28 01:21:19;;;;;;;23.33;22.02;;;;;;;;;;5100506;28;20204;-82
2023/01/28 01:23:47;;;;;;;22.58;21.38;;;;;;;;;;5100824;28;20756;-82
2023/01/28 01:26:14;;;;;;;24.13;22.73;;;;;;;;;;5099658;28;20215;-82
2023/01/28 01:28:41;;;;;;;22.38;21.25;;;;;;;;;;5100970;28;20249;-81
2023/01/28 01:31:12;;;;;;;22.65;21.45;;;;;;;;;;5100293;28;20200;-81
2023/01/28 01:33:39;;;;;;;22.65;21.55;;;;;;;;;;5100874;28;20638;-83
2023/01/28 01:36:07;;;;;;;22.83;21.52;;;;;;;;;;5100779;28;20251;-82
2023/01/28 01:38:34;;;;;;;23.67;22.27;;;;;;;;;;5101232;28;20202;-82
2023/01/28 01:41:01;;;;;;;22.63;21.27;;;;;;;;;;5100772;28;20219;-82
2023/01/28 01:43:43;;;;;;;22.42;21.25;;;;;;;;;;5099607;28;20290;-82
2023/01/28 01:46:12;;;;;;;24.23;22.50;;;;;;;;;;5100562;28;20257;-81
2023/01/28 01:48:40;;;;;;;23.08;21.90;;;;;;;;;;5100657;28;20203;-81
2023/01/28 01:51:08;;;;;;;25.92;23.90;;;;;;;;;;5101406;28;20227;-83
2023/01/28 01:53:36;;;;;;;22.85;21.40;;;;;;;;;;5100178;28;20733;-81
2023/01/28 01:56:05;;;;;;;23.58;22.08;;;;;;;;;;5099794;28;20277;-83
2023/01/28 01:58:34;;;;;;;86.15;38.67;;;;;;;;;;5100674;28;20256;-81
2023/01/28 02:01:01;;;;;;;22.60;21.40;;;;;;;;;;5100487;28;20207;-81
2023/01/28 02:03:32;;;;;;;22.52;21.42;;;;;;;;;;5099543;28;20236;-82
2023/01/28 02:05:59;;;;;;;22.92;21.67;;;;;;;;;;5100188;28;20216;-82
2023/01/28 02:08:26;;;;;;;23.48;22.08;;;;;;;;;;5100329;28;20257;-82
2023/01/28 02:10:55;;;;;;;23.48;22.27;;;;;;;;;;5100072;28;20200;-81
2023/01/28 02:13:23;;;;;;;22.45;21.25;;;;;;;;;;5099886;28;20188;-81
2023/01/28 02:15:50;;;;;;;22.67;21.50;;;;;;;;;;5100010;28;20219;-82
2023/01/28 02:18:17;;;;;;;24.10;22.58;;;;;;;;;;5100503;28;20225;-82
2023/01/28 02:20:53;;;;;;;26.52;24.58;;;;;;;;;;5099378;28;20668;-81
2023/01/28 02:23:27;;;;;;;23.42;22.08;;;;;;;;;;5099299;28;20205;-82
2023/01/28 02:26:23;;;;;;;24.42;22.92;;;;;;;;;;5098758;28;20223;-82
2023/01/28 02:28:55;;;;;;;23.17;21.98;;;;;;;;;;5099252;28;20254;-82
2023/01/28 02:31:25;;;;;;;23.98;22.58;;;;;;;;;;5098181;28;20192;-81
2023/01/28 02:33:57;;;;;;;23.08;21.48;;;;;;;;;;5099436;28;20568;-82
2023/01/28 02:36:30;;;;;;;27.05;24.65;;;;;;;;;;5099127;28;20224;-83
2023/01/28 02:39:02;;;;;;;23.15;21.85;;;;;;;;;;5100136;28;20230;-81
2023/01/28 02:41:32;;;;;;;22.33;21.00;;;;;;;;;;5099383;28;20192;-83
2023/01/28 02:44:02;;;;;;;23.20;21.90;;;;;;;;;;5099901;28;20223;-83
2023/01/28 02:49:24;;;;;;;34.35;28.17;;;;;;;;;;5099157;28;20179;-81
2023/01/28 02:51:58;;;;;;;23.05;21.75;;;;;;;;;;5099204;28;20215;-83
2023/01/28 02:54:31;;;;;;;23.60;22.05;;;;;;;;;;5099762;28;20233;-81
2023/01/28 02:57:04;;;;;;;25.02;23.30;;;;;;;;;;5099425;28;20269;-83
2023/01/28 02:59:36;;;;;;;24.23;22.92;;;;;;;;;;5098942;28;20194;-83
2023/01/28 03:02:09;;;;;;;21.05;19.95;;;;;;;;;;5098009;28;20231;-81
2023/01/28 03:04:39;;;;;;;20.67;19.58;;;;;;;;;;5098706;28;20228;-83
2023/01/28 03:07:07;;;;;;;22.70;21.25;;;;;;;;;;5099045;28;20681;-83
2023/01/28 03:09:36;;;;;;;22.63;21.42;;;;;;;;;;5099725;28;20208;-81
2023/01/28 03:37:02;;;;;;;26.40;24.15;;;;;;;;;;5098893;28;20289;-82
2023/01/28 03:39:30;;;;;;;92.75;40.63;;;;;;;;;;5099181;28;20210;-81
2023/01/28 03:41:59;;;;;;;22.92;21.73;;;;;;;;;;5100088;28;20195;-83
2023/01/28 03:47:13;;;;;;;23.10;21.80;;;;;;;;;;5103714;28;20555;-82
2023/01/28 03:49:40;;;;;;;24.40;22.50;;;;;;;;;;5104247;28;20273;-83
2023/01/28 03:52:07;;;;;;;22.60;21.17;;;;;;;;;;5103457;28;20253;-82
2023/01/28 03:54:34;;;;;;;24.00;22.50;;;;;;;;;;5102673;28;20254;-83
2023/01/28 03:57:01;;;;;;;22.50;21.30;;;;;;;;;;5103020;28;20214;-81
2023/01/28 03:59:28;;;;;;;23.77;22.10;;;;;;;;;;5102835;28;20204;-83
2023/01/28 04:01:56;;;;;;;22.20;21.00;;;;;;;;;;5103018;28;20254;-83
2023/01/28 04:04:24;;;;;;;22.63;21.33;;;;;;;;;;5102261;28;20322;-81
2023/01/28 04:06:52;;;;;;;136.73;49.45;;;;;;;;;;5102030;28;20204;-82
2023/01/28 04:09:19;;;;;;;82.25;38.83;;;;;;;;;;5102260;28;20281;-83
2023/01/28 04:11:46;;;;;;;214.43;80.97;;;;;;;;;;5101875;28;20614;-82
2023/01/28 04:14:14;;;;;;;34.60;30.33;;;;;;;;;;5102553;28;20202;-83
2023/01/28 04:16:41;;;;;;;23.45;22.13;;;;;;;;;;5103145;28;20243;-81
2023/01/28 04:19:08;;;;;;;24.08;22.58;;;;;;;;;;5102421;28;20286;-82
2023/01/28 04:21:37;;;;;;;23.08;21.88;;;;;;;;;;5101590;28;20246;-83
2023/01/28 04:24:04;;;;;;;24.33;23.00;;;;;;;;;;5102322;28;20220;-83
2023/01/28 04:26:31;;;;;;;40.33;28.77;;;;;;;;;;5101075;28;20233;-82
2023/01/28 04:28:58;;;;;;;303.00;85.85;;;;;;;;;;5102089;28;20209;-81
2023/01/28 04:31:25;;;;;;;26.42;24.38;;;;;;;;;;5101504;28;20287;-81
2023/01/28 04:33:52;;;;;;;350.77;93.72;;;;;;;;;;5101957;28;20325;-82
2023/01/28 04:36:19;;;;;;;96.57;41.92;;;;;;;;;;5101761;28;20237;-82
2023/01/28 04:38:47;;;;;;;349.15;92.35;;;;;;;;;;5101926;28;20277;-82
2023/01/28 04:41:14;;;;;;;360.30;95.47;;;;;;;;;;5100921;28;20204;-82
2023/01/28 04:43:41;;;;;;;245.93;97.00;;;;;;;;;;5101169;28;20208;-83
2023/01/28 04:46:08;;;;;;;333.25;99.38;;;;;;;;;;5101085;28;20228;-82
2023/01/28 04:48:35;;;;;;;332.70;95.10;;;;;;;;;;5101213;28;20257;-83
2023/01/28 04:51:03;;;;;;;309.05;94.38;;;;;;;;;;5100969;28;20206;-81
2023/01/28 04:53:30;;;;;;;326.90;117.32;;;;;;;;;;5100916;28;20709;-81
2023/01/28 04:56:02;;;;;;;338.83;101.35;;;;;;;;;;5101603;28;20223;-82
2023/01/28 04:58:29;;;;;;;489.25;227.43;;;;;;;;;;5102065;28;20191;-81
2023/01/28 05:00:56;;;;;;;338.30;128.93;;;;;;;;;;5101522;28;20203;-82
2023/01/28 05:03:24;;;;;;;354.55;127.40;;;;;;;;;;5101079;28;20279;-83
2023/01/28 05:05:51;;;;;;;341.95;109.45;;;;;;;;;;5100800;28;20228;-83
2023/01/28 05:08:18;;;;;;;327.65;103.53;;;;;;;;;;5101982;28;20207;-82
2023/01/28 05:10:45;;;;;;;462.73;241.57;;;;;;;;;;5101635;28;20196;-83
2023/01/28 05:13:13;;;;;;;433.83;206.55;;;;;;;;;;5101795;28;20205;-82
2023/01/28 05:15:40;;;;;;;393.15;138.40;;;;;;;;;;5100486;28;20234;-83
2023/01/28 05:18:07;;;;;;;408.92;193.50;;;;;;;;;;5100775;28;20585;-83
2023/01/28 05:20:34;;;;;;;256.73;142.18;;;;;;;;;;5101311;28;20230;-83
2023/01/28 05:23:01;;;;;;;46.10;37.20;;;;;;;;;;5100962;28;20222;-84
2023/01/28 05:25:28;;;;;;;79.95;42.17;;;;;;;;;;5101653;28;20636;-83
2023/01/28 05:27:55;;;;;;;71.07;40.47;;;;;;;;;;5101723;28;20200;-83
2023/01/28 05:30:23;;;;;;;26.17;24.15;;;;;;;;;;5101462;28;20274;-83
2023/01/28 05:32:55;;;;;;;27.75;25.08;;;;;;;;;;5099922;28;20235;-82
2023/01/28 05:35:22;;;;;;;148.65;65.40;;;;;;;;;;5100799;28;20216;-82
2023/01/28 05:37:49;;;;;;;33.08;26.35;;;;;;;;;;5101612;28;20325;-82
2023/01/28 05:40:16;;;;;;;25.98;24.10;;;;;;;;;;5101074;28;20199;-83
2023/01/28 05:42:43;;;;;;;28.38;25.52;;;;;;;;;;5098986;28;20197;-83
2023/01/28 05:45:11;;;;;;;33.63;26.90;;;;;;;;;;5098634;28;20286;-83
2023/01/28 05:47:39;;;;;;;40.00;31.50;;;;;;;;;;5099167;28;20200;-81
2023/01/28 05:50:06;;;;;;;24.48;22.88;;;;;;;;;;5099223;28;20262;-82
2023/01/28 05:52:33;;;;;;;27.55;25.13;;;;;;;;;;5100902;28;20205;-82
2023/01/28 05:55:01;;;;;;;330.30;257.02;;;;;;;;;;5098715;28;20226;-81
2023/01/28 05:57:28;;;;;;;24.23;22.85;;;;;;;;;;5098555;28;20216;-82
2023/01/28 05:59:55;;;;;;;70.82;46.40;;;;;;;;;;5098618;28;20211;-81
2023/01/28 06:02:22;;;;;;;33.78;30.73;;;;;;;;;;5097766;28;20216;-83
2023/01/28 06:04:50;;;;;;;30.17;28.17;;;;;;;;;;5097359;28;20233;-83
2023/01/28 06:07:19;;;;;;;97.07;56.03;;;;;;;;;;5098643;28;20193;-82
2023/01/28 06:09:46;;;;;;;24.45;23.05;;;;;;;;;;5098986;28;20211;-81
2023/01/28 06:12:13;;;;;;;25.73;24.00;;;;;;;;;;5097784;28;20241;-83
2023/01/28 06:14:39;;;;;;;25.58;24.08;;;;;;;;;;5098967;28;20227;-81
2023/01/28 06:17:06;;;;;;;25.58;23.88;;;;;;;;;;5098461;28;20204;-81
2023/01/28 06:19:34;;;;;;;25.38;23.77;;;;;;;;;;5098253;28;20235;-81
2023/01/28 06:22:02;;;;;;;25.02;23.63;;;;;;;;;;5098371;28;20270;-83
2023/01/28 06:24:29;;;;;;;25.23;23.63;;;;;;;;;;5097710;28;20280;-82
2023/01/28 06:26:56;;;;;;;166.57;99.68;;;;;;;;;;5098541;28;20192;-81
2023/01/28 06:29:23;;;;;;;24.40;22.90;;;;;;;;;;5098716;28;20253;-81
2023/01/28 06:31:50;;;;;;;70.57;42.38;;;;;;;;;;5097505;28;20250;-82
2023/01/28 06:34:18;;;;;;;58.97;38.97;;;;;;;;;;5098406;28;20214;-84
2023/01/28 06:36:45;;;;;;;25.27;23.77;;;;;;;;;;5097599;28;20208;-81
2023/01/28 06:39:13;;;;;;;25.48;23.77;;;;;;;;;;5098654;28;20204;-83
2023/01/28 06:41:40;;;;;;;25.35;23.88;;;;;;;;;;5098558;28;20203;-82
2023/01/28 06:44:07;;;;;;;25.48;23.98;;;;;;;;;;5098721;28;20204;-83
2023/01/28 06:46:34;;;;;;;25.60;24.10;;;;;;;;;;5100032;28;20272;-83
2023/01/28 06:49:01;;;;;;;25.17;23.70;;;;;;;;;;5098152;28;20209;-83
2023/01/28 06:51:28;;;;;;;25.58;24.00;;;;;;;;;;5097382;28;20616;-82
2023/01/28 06:53:55;;;;;;;25.80;24.17;;;;;;;;;;5097739;28;20211;-83
2023/01/28 06:56:24;;;;;;;24.48;23.08;;;;;;;;;;5086557;28;20216;-84
2023/01/28 06:58:51;;;;;;;26.05;24.45;;;;;;;;;;5085980;28;20246;-83
2023/01/28 07:01:18;;;;;;;25.70;24.10;;;;;;;;;;5082343;28;20726;-84
2023/01/28 07:03:45;;;;;;;24.73;23.23;;;;;;;;;;5077737;28;20201;-82
2023/01/28 07:06:12;;;;;;;25.10;23.60;;;;;;;;;;5078150;28;20243;-82
2023/01/28 07:08:40;;;;;;;25.25;23.70;;;;;;;;;;5078280;28;20208;-82
2023/01/28 07:11:07;;;;;;;24.95;23.45;;;;;;;;;;5078162;28;20211;-84
2023/01/28 07:13:35;;;;;;;24.10;22.70;;;;;;;;;;5077750;28;20736;-82
2023/01/28 07:16:02;;;;;;;25.73;24.13;;;;;;;;;;5077632;28;20278;-82
2023/01/28 07:18:30;;;;;;;25.42;23.80;;;;;;;;;;5078087;28;20244;-83
2023/01/28 07:20:57;;;;;;;24.60;23.20;;;;;;;;;;5076468;28;20213;-83
2023/01/28 07:23:24;;;;;;;25.00;23.50;;;;;;;;;;5077616;28;20202;-82
2023/01/28 07:25:51;;;;;;;25.13;23.42;;;;;;;;;;5075065;28;20705;-77
2023/01/28 07:28:20;;;;;;;26.63;24.98;;;;;;;;;;5074539;28;20248;-79
2023/01/28 07:30:49;;;;;;;26.48;24.98;;;;;;;;;;5074765;28;20216;-78
2023/01/28 07:33:16;;;;;;;26.05;24.42;;;;;;;;;;5077075;28;20234;-84
2023/01/28 07:35:43;;;;;;;30.35;27.75;;;;;;;;;;5076642;28;20229;-82
2023/01/28 07:38:10;;;;;;;26.67;24.95;;;;;;;;;;5076178;28;20208;-78
2023/01/28 07:40:37;;;;;;;25.85;24.15;;;;;;;;;;5073001;28;20209;-78
2023/01/28 07:43:05;;;;;;;24.52;23.13;;;;;;;;;;5072714;28;20750;-77
2023/01/28 07:45:33;;;;;;;24.70;23.20;;;;;;;;;;5072659;28;20783;-79
2023/01/28 07:48:02;;;;;;;25.38;23.63;;;;;;;;;;5073017;28;20281;-77
2023/01/28 07:50:30;;;;;;;25.83;24.42;;;;;;;;;;5073599;28;20254;-77
2023/01/28 07:52:57;;;;;;;24.02;22.63;;;;;;;;;;5072154;28;20210;-78
2023/01/28 07:55:25;;;;;;;25.25;23.75;;;;;;;;;;5073086;28;20217;-77
2023/01/28 07:57:52;;;;;;;24.25;22.48;;;;;;;;;;5073071;28;20258;-79
2023/01/28 08:00:20;;;;;;;24.70;23.30;;;;;;;;;;5073585;28;20209;-78
2023/01/28 08:02:47;;;;;;;24.58;23.20;;;;;;;;;;5072343;28;20635;-78
2023/01/28 08:05:17;;;;;;;24.70;22.67;;;;;;;;;;5073388;28;20240;-78
2023/01/28 08:07:44;;;;;;;24.88;23.48;;;;;;;;;;5073822;28;20216;-78
2023/01/28 08:10:11;;;;;;;26.70;25.08;;;;;;;;;;5073514;28;20216;-78
2023/01/28 08:12:38;;;;;;;25.00;23.50;;;;;;;;;;5074235;28;20200;-78
2023/01/28 08:15:06;;;;;;;26.15;24.60;;;;;;;;;;5074591;28;20255;-78
2023/01/28 08:17:33;;;;;;;25.38;23.85;;;;;;;;;;5075449;28;20213;-79
2023/01/28 08:20:00;;;;;;;25.60;23.77;;;;;;;;;;5074579;28;20617;-78
2023/01/28 08:22:29;;;;;;;23.98;22.58;;;;;;;;;;5073675;28;20220;-79
2023/01/28 08:24:56;;;;;;;29.45;27.80;;;;;;;;;;5074675;28;20223;-79
2023/01/28 08:27:23;;;;;;;27.13;25.60;;;;;;;;;;5075084;28;20208;-79
2023/01/28 08:29:50;;;;;;;25.10;23.30;;;;;;;;;;5078079;28;20216;-78
2023/01/28 08:32:17;;;;;;;25.85;23.92;;;;;;;;;;5077362;28;20209;-79
2023/01/28 08:34:45;;;;;;;25.17;23.60;;;;;;;;;;5076878;28;20639;-78
2023/01/28 08:37:11;;;;;;;27.17;25.48;;;;;;;;;;5078269;28;20211;-79
2023/01/28 08:39:40;;;;;;;34.55;31.70;;;;;;;;;;5077261;28;20200;-78
2023/01/28 08:42:07;;;;;;;24.60;22.90;;;;;;;;;;5077698;28;20723;-78
2023/01/28 08:44:34;;;;;;;32.05;30.05;;;;;;;;;;5077532;28;20274;-78
2023/01/28 08:47:01;;;;;;;28.63;26.88;;;;;;;;;;5078172;28;20566;-79
2023/01/28 08:49:28;;;;;;;24.42;22.95;;;;;;;;;;5077811;28;20265;-79
2023/01/28 08:51:55;;;;;;;24.45;23.05;;;;;;;;;;5077075;28;20255;-79
2023/01/28 08:54:22;;;;;;;25.90;24.40;;;;;;;;;;5077777;28;20208;-79
2023/01/28 08:56:50;;;;;;;25.70;24.30;;;;;;;;;;5077803;28;20601;-79
2023/01/28 08:59:18;;;;;;;23.88;22.48;;;;;;;;;;5078615;28;20206;-79
2023/01/28 09:01:45;;;;;;;23.90;22.38;;;;;;;;;;5078337;28;20732;-79
2023/01/28 09:04:12;;;;;;;23.92;22.40;;;;;;;;;;5079740;28;20256;-78
2023/01/28 09:06:39;;;;;;;23.85;22.55;;;;;;;;;;5079554;28;20224;-78
2023/01/28 09:09:06;;;;;;;26.25;24.58;;;;;;;;;;5080035;28;20207;-84
2023/01/28 09:11:33;;;;;;;25.95;24.25;;;;;;;;;;5076728;28;20614;-79
2023/01/28 09:14:01;;;;;;;25.65;24.15;;;;;;;;;;5075736;28;20283;-78
2023/01/28 09:16:28;;;;;;;25.90;24.45;;;;;;;;;;5077452;28;20224;-77
2023/01/28 09:18:55;;;;;;;25.55;24.02;;;;;;;;;;5076290;28;20259;-79
2023/01/28 09:21:22;;;;;;;25.48;23.98;;;;;;;;;;5074318;28;20200;-79
2023/01/28 09:23:49;;;;;;;27.20;25.60;;;;;;;;;;5075636;28;20245;-78
2023/01/28 09:26:16;;;;;;;26.52;24.73;;;;;;;;;;5075250;28;20563;-79
2023/01/28 09:28:43;;;;;;;25.27;23.88;;;;;;;;;;5075777;28;20261;-79
2023/01/28 09:31:12;;;;;;;26.50;24.90;;;;;;;;;;5075954;28;20204;-78
2023/01/28 09:33:40;;;;;;;25.45;23.88;;;;;;;;;;5075796;28;20212;-78
2023/01/28 09:36:08;;;;;;;24.40;22.90;;;;;;;;;;5076065;28;20275;-79
2023/01/28 09:38:35;;;;;;;26.20;24.30;;;;;;;;;;5075494;28;20622;-78
2023/01/28 09:41:04;;;;;;;25.80;23.90;;;;;;;;;;5075069;28;20208;-78
2023/01/28 09:43:50;;;;;;;24.92;23.08;;;;;;;;;;5075222;28;20202;-78
2023/01/28 09:46:18;;;;;;;26.27;24.58;;;;;;;;;;5075939;28;20350;-78
2023/01/28 09:48:46;;;;;;;25.55;23.85;;;;;;;;;;5075894;28;20205;-79
2023/01/28 09:51:19;;;;;;;26.77;24.98;;;;;;;;;;5075233;28;20218;-78
2023/01/28 09:53:48;;;;;;;25.45;23.95;;;;;;;;;;5075603;28;20189;-78
2023/01/28 09:56:19;;;;;;;25.65;24.10;;;;;;;;;;5075384;28;20271;-78
2023/01/28 09:58:46;;;;;;;24.38;22.92;;;;;;;;;;5075448;28;20185;-78
2023/01/28 10:01:27;;;;;;;24.67;23.15;;;;;;;;;;5075131;28;20902;-79
2023/01/28 10:03:57;;;;;;;25.67;24.08;;;;;;;;;;5075144;28;20177;-78
2023/01/28 10:06:26;;;;;;;25.83;24.33;;;;;;;;;;5076263;28;20264;-79
2023/01/28 10:09:00;;;;;;;25.20;23.70;;;;;;;;;;5076029;28;20205;-77
2023/01/28 10:11:36;;;;;;;24.88;23.48;;;;;;;;;;5075879;28;20187;-79
2023/01/28 10:14:06;;;;;;;25.27;23.67;;;;;;;;;;5075864;28;20212;-78
2023/01/28 10:16:38;;;;;;;25.35;23.58;;;;;;;;;;5076324;28;20193;-78
2023/01/28 10:19:07;;;;;;;25.77;24.35;;;;;;;;;;5075823;28;20194;-79
2023/01/28 10:21:37;;;;;;;26.23;24.63;;;;;;;;;;5073574;28;20719;-79
2023/01/28 10:24:07;;;;;;;26.52;24.90;;;;;;;;;;5074458;28;20212;-78
2023/01/28 10:26:35;;;;;;;27.00;25.33;;;;;;;;;;5074421;28;20212;-78
2023/01/28 10:29:04;;;;;;;25.52;24.13;;;;;;;;;;5074350;28;20205;-78
2023/01/28 10:31:35;;;;;;;26.70;25.08;;;;;;;;;;5073449;28;20663;-79
2023/01/28 10:34:04;;;;;;;26.35;24.75;;;;;;;;;;5074260;28;20248;-79
2023/01/28 10:36:31;;;;;;;27.52;25.58;;;;;;;;;;5074533;28;20205;-78
2023/01/28 10:38:58;;;;;;;26.50;24.88;;;;;;;;;;5074468;28;20213;-79
2023/01/28 10:41:25;;;;;;;26.20;24.33;;;;;;;;;;5073579;28;20683;-78
2023/01/28 10:43:52;;;;;;;26.60;24.77;;;;;;;;;;5074496;28;20226;-78
2023/01/28 10:46:21;;;;;;;26.73;25.05;;;;;;;;;;5073757;28;20687;-78
2023/01/28 10:48:54;;;;;;;26.00;24.40;;;;;;;;;;5074009;28;20205;-77
2023/01/28 10:51:31;;;;;;;26.17;24.38;;;;;;;;;;5073044;28;20189;-79
2023/01/28 10:53:58;;;;;;;26.85;25.25;;;;;;;;;;5073937;28;20185;-78
2023/01/28 10:56:26;;;;;;;27.65;26.05;;;;;;;;;;5073786;28;20222;-78
2023/01/28 10:58:58;;;;;;;26.88;25.17;;;;;;;;;;5074558;28;20210;-79
2023/01/28 11:01:26;;;;;;;27.75;26.05;;;;;;;;;;5073109;28;20281;-78
2023/01/28 11:03:54;;;;;;;27.23;25.30;;;;;;;;;;5073863;28;20208;-78
2023/01/28 11:06:25;;;;;;;27.17;25.27;;;;;;;;;;5077205;28;20235;-88
2023/01/28 11:08:53;;;;;;;26.83;25.23;;;;;;;;;;5098005;28;20254;-89
2023/01/28 11:11:24;;;;;;;27.73;25.85;;;;;;;;;;5096828;28;20197;-87
2023/01/28 11:13:52;;;;;;;26.45;24.75;;;;;;;;;;5096630;28;20647;-79
2023/01/28 11:16:20;;;;;;;25.52;23.92;;;;;;;;;;5096712;28;20228;-81
2023/01/28 11:18:49;;;;;;;25.90;24.40;;;;;;;;;;5098080;28;20262;-85
2023/01/28 11:21:17;;;;;;;25.55;23.85;;;;;;;;;;5097509;28;20725;-80
2023/01/28 11:23:50;;;;;;;26.88;25.25;;;;;;;;;;5097991;28;20212;-84
2023/01/28 11:26:19;;;;;;;26.77;24.98;;;;;;;;;;5100170;28;20224;-80
2023/01/28 11:28:46;;;;;;;27.38;25.35;;;;;;;;;;5099024;28;20270;-80
2023/01/28 11:31:14;;;;;;;27.88;26.27;;;;;;;;;;5099472;28;20211;-87
2023/01/28 11:33:44;;;;;;;26.20;24.58;;;;;;;;;;5099710;28;20208;-85
2023/01/28 11:36:14;;;;;;;25.90;24.30;;;;;;;;;;5099520;28;20224;-84
2023/01/28 11:38:48;;;;;;;27.08;25.38;;;;;;;;;;5099297;28;20264;-83
2023/01/28 11:41:16;;;;;;;26.27;24.58;;;;;;;;;;5099082;28;20202;-85
2023/01/28 11:43:45;;;;;;;27.08;25.25;;;;;;;;;;5096253;28;20209;-88
2023/01/28 11:46:21;;;;;;;25.95;24.25;;;;;;;;;;5096563;28;20251;-80
2023/01/28 11:48:52;;;;;;;26.02;23.98;;;;;;;;;;5096108;28;20638;-82
2023/01/28 11:51:25;;;;;;;25.85;24.25;;;;;;;;;;5096293;28;20250;-80
2023/01/28 11:53:57;;;;;;;26.73;25.20;;;;;;;;;;5097641;28;20222;-80
2023/01/28 11:56:42;;;;;;;26.85;25.15;;;;;;;;;;5096391;28;20653;-81
2023/01/28 11:59:19;;;;;;;26.33;24.63;;;;;;;;;;5056841;28;20247;-81
2023/01/28 12:01:52;;;;;;;26.45;24.60;;;;;;;;;;5095547;28;20211;-81
2023/01/28 12:04:23;;;;;;;26.30;24.50;;;;;;;;;;5099335;28;20213;-80
2023/01/28 12:06:57;;;;;;;26.83;25.02;;;;;;;;;;5100661;28;20209;-81
2023/01/28 12:09:27;;;;;;;26.77;24.75;;;;;;;;;;5100923;28;20193;-81
2023/01/28 12:12:13;;;;;;;25.27;23.63;;;;;;;;;;5100802;28;20216;-81
2023/01/28 12:14:50;;;;;;;27.40;25.70;;;;;;;;;;5101733;28;20735;-81
2023/01/28 12:17:22;;;;;;;26.50;24.77;;;;;;;;;;5102417;28;20942;-82
2023/01/28 12:19:54;;;;;;;25.17;23.67;;;;;;;;;;5101520;28;20621;-82
2023/01/28 12:22:31;;;;;;;25.73;24.23;;;;;;;;;;5101398;28;20242;-81
2023/01/28 12:25:06;;;;;;;26.05;24.35;;;;;;;;;;5101219;28;20669;-82
2023/01/28 12:27:41;;;;;;;25.50;23.92;;;;;;;;;;5100925;28;20677;-82
2023/01/28 12:30:14;;;;;;;26.75;25.05;;;;;;;;;;5101565;28;20197;-82
2023/01/28 12:32:49;;;;;;;26.20;24.70;;;;;;;;;;5100626;28;20639;-81
2023/01/28 12:35:25;;;;;;;27.25;25.45;;;;;;;;;;5101535;28;20563;-81
2023/01/28 12:38:01;;;;;;;26.58;24.75;;;;;;;;;;5100336;28;20245;-82
2023/01/28 12:40:44;;;;;;;26.00;24.40;;;;;;;;;;5100989;28;20211;-81
2023/01/28 12:43:14;;;;;;;25.83;24.33;;;;;;;;;;5100404;28;20193;-82
2023/01/28 12:45:45;;;;;;;25.75;24.25;;;;;;;;;;5100913;28;20641;-82
2023/01/28 12:48:13;;;;;;;25.23;23.50;;;;;;;;;;5101306;28;20224;-82
2023/01/28 12:50:44;;;;;;;25.73;24.02;;;;;;;;;;5101506;28;20199;-82
2023/01/28 12:53:17;;;;;;;27.00;25.02;;;;;;;;;;5100984;28;20203;-82
2023/01/28 12:55:46;;;;;;;27.58;25.38;;;;;;;;;;5101601;28;20691;-81
2023/01/28 12:58:17;;;;;;;26.40;24.80;;;;;;;;;;5101613;28;20208;-81
2023/01/28 13:00:47;;;;;;;27.15;25.50;;;;;;;;;;5101214;28;20192;-81
2023/01/28 13:03:17;;;;;;;27.63;25.83;;;;;;;;;;5100329;28;20213;-80
2023/01/28 13:05:46;;;;;;;27.77;25.63;;;;;;;;;;5101231;28;20225;-81
2023/01/28 13:08:17;;;;;;;26.77;25.13;;;;;;;;;;5101197;28;20220;-81
2023/01/28 13:10:44;;;;;;;26.33;24.58;;;;;;;;;;5101915;28;20193;-81
2023/01/28 13:13:16;;;;;;;27.58;25.70;;;;;;;;;;5100773;28;20277;-81
2023/01/28 13:15:44;;;;;;;27.20;25.00;;;;;;;;;;5101164;28;20217;-82
2023/01/28 13:18:26;;;;;;;26.92;25.23;;;;;;;;;;5100511;28;20211;-81
2023/01/28 13:20:55;;;;;;;27.40;25.65;;;;;;;;;;5099960;28;20211;-81
2023/01/28 13:23:23;;;;;;;27.13;25.23;;;;;;;;;;5100398;28;20248;-81
2023/01/28 13:25:50;;;;;;;27.98;26.23;;;;;;;;;;5100780;28;20274;-82
2023/01/28 13:28:26;;;;;;;26.23;24.60;;;;;;;;;;5100649;28;20217;-81
2023/01/28 13:31:00;;;;;;;27.25;25.55;;;;;;;;;;5099537;28;20712;-81
2023/01/28 13:33:29;;;;;;;26.40;24.50;;;;;;;;;;5088002;28;20258;-80
2023/01/28 13:35:58;;;;;;;25.45;23.95;;;;;;;;;;5078792;28;20233;-80
2023/01/28 13:38:25;;;;;;;27.80;26.00;;;;;;;;;;5078079;28;20276;-81
2023/01/28 13:40:56;;;;;;;27.90;26.00;;;;;;;;;;5078446;28;20225;-81
2023/01/28 13:43:27;;;;;;;27.52;25.83;;;;;;;;;;5077166;28;20217;-81
2023/01/28 13:45:58;;;;;;;28.35;26.25;;;;;;;;;;5077866;28;20216;-80
2023/01/28 13:48:28;;;;;;;27.02;25.33;;;;;;;;;;5077944;28;20278;-81
2023/01/28 13:50:56;;;;;;;27.85;26.13;;;;;;;;;;5077715;28;20194;-80
2023/01/28 13:53:29;;;;;;;28.25;26.45;;;;;;;;;;5077525;28;20213;-81
2023/01/28 13:55:57;;;;;;;27.90;26.13;;;;;;;;;;5076563;28;20283;-81
2023/01/28 13:58:49;;;;;;;28.70;26.65;;;;;;;;;;5077976;28;20202;-81
2023/01/28 14:01:27;;;;;;;27.75;25.83;;;;;;;;;;5078156;28;20209;-81
2023/01/28 14:04:17;;;;;;;28.33;26.38;;;;;;;;;;5078708;28;20184;-81
2023/01/28 14:06:55;;;;;;;27.27;25.27;;;;;;;;;;5077837;28;20229;-80
2023/01/28 14:09:31;;;;;;;27.33;25.58;;;;;;;;;;5078444;28;20643;-80
2023/01/28 14:12:09;;;;;;;28.35;26.55;;;;;;;;;;5076932;28;20181;-81
2023/01/28 14:14:41;;;;;;;27.95;25.77;;;;;;;;;;5077888;28;20222;-80
2023/01/28 14:17:13;;;;;;;27.92;26.23;;;;;;;;;;5078145;28;20187;-81
2023/01/28 14:19:41;;;;;;;27.08;25.38;;;;;;;;;;5077766;28;20193;-81
2023/01/28 14:22:08;;;;;;;28.90;26.75;;;;;;;;;;5075903;28;20236;-80
2023/01/28 14:24:37;;;;;;;27.10;25.40;;;;;;;;;;5077479;28;20290;-79
2023/01/28 14:27:07;;;;;;;28.17;26.42;;;;;;;;;;5076427;28;20226;-81
2023/01/28 14:29:43;;;;;;;27.83;26.10;;;;;;;;;;5077573;28;20603;-81
2023/01/28 14:32:13;;;;;;;27.45;25.75;;;;;;;;;;5075277;28;20268;-81
2023/01/28 14:34:41;;;;;;;27.33;25.73;;;;;;;;;;5077089;28;20225;-80
2023/01/28 14:37:09;;;;;;;26.90;25.20;;;;;;;;;;5077125;28;20198;-80
2023/01/28 14:39:42;;;;;;;28.05;26.10;;;;;;;;;;5076927;28;20620;-81
2023/01/28 14:42:14;;;;;;;26.35;24.73;;;;;;;;;;5076324;28;20188;-80
2023/01/28 14:44:42;;;;;;;26.92;25.20;;;;;;;;;;5076470;28;20233;-81
2023/01/28 14:47:32;;;;;;;28.10;26.20;;;;;;;;;;5091584;28;20224;-80
2023/01/28 14:50:11;;;;;;;27.98;26.17;;;;;;;;;;5095063;28;20236;-81
2023/01/28 14:52:48;;;;;;;28.80;26.92;;;;;;;;;;5096854;28;20222;-81
2023/01/28 14:55:23;;;;;;;29.63;27.52;;;;;;;;;;5097211;28;20254;-81
2023/01/28 14:57:52;;;;;;;28.98;27.00;;;;;;;;;;5096169;28;20200;-81